Data for 12/03/2014

Time Sea-Level Adjusted Pressure Absolute Pressure Temperature Relative Humidity Dew Point   
(mb) (inHg) (mb) (inHg) (C) (F) (%) (C) (F)
00:05 1019 30.09 848 25.04 -7.1 19.3 64 -12.8 9
00:10 1018 30.06 848 25.04 -7.1 19.1 64 -12.8 8.9
00:15 1018 30.06 848 25.04 -6.9 19.5 62 -13.1 8.3
00:20 1018 30.06 848 25.04 -6.5 20.3 60 -13 8.6
00:25 1018 30.06 848 25.04 -6.3 20.6 59 -13.1 8.5
00:30 1018 30.06 848 25.04 -6.2 20.9 59 -13 8.7
00:35 1018 30.06 848 25.04 -6.2 20.8 61 -12.6 9.2
00:40 1018 30.06 848 25.04 -6.6 20.1 61 -13 8.6
00:45 1018 30.06 848 25.04 -6.7 19.9 61 -13.1 8.5
00:50 1018 30.06 848 25.04 -7 19.4 62 -13.1 8.4
00:55 1018 30.06 848 25.04 -7.2 19 63 -13.1 8.4
01:00 1018 30.06 848 25.04 -7.2 19 63 -13.2 8.3
01:05 1018 30.06 848 25.04 -7.2 19 63 -13.2 8.3
01:10 1018 30.06 847 25.01 -6.9 19.7 60 -13.4 7.9
01:15 1018 30.06 847 25.01 -6.9 19.6 61 -13.2 8.3
01:20 1018 30.06 847 25.01 -6.8 19.8 60 -13.4 7.9
01:25 1018 30.06 847 25.01 -6 21.2 56 -13.5 7.7
01:30 1018 30.06 847 25.01 -5.5 22 55 -13.3 8.1
01:35 1018 30.06 847 25.01 -5.5 22.1 54 -13.3 8
01:40 1018 30.06 847 25.01 -5.4 22.3 54 -13.2 8.2
01:45 1018 30.06 847 25.01 -5.8 21.6 57 -13 8.5
01:50 1018 30.06 847 25.01 -6.2 20.9 58 -13.1 8.3
01:55 1018 30.06 847 25.01 -6.6 20.1 60 -13.2 8.2
02:00 1018 30.06 847 25.01 -6.8 19.8 60 -13.2 8.2
02:05 1018 30.06 847 25.01 -6.7 20 59 -13.4 7.9
02:10 1018 30.06 847 25.01 -6.4 20.5 58 -13.4 7.9
02:15 1017 30.03 847 25.01 -6 21.3 56 -13.5 7.8
02:20 1017 30.03 847 25.01 -5.7 21.7 55 -13.5 7.8
02:25 1017 30.03 847 25.01 -5.6 21.9 54 -13.5 7.7
02:30 1017 30.03 847 25.01 -5.7 21.7 55 -13.4 7.8
02:35 1017 30.03 847 25.01 -5.8 21.6 55 -13.4 7.9
02:40 1017 30.03 847 25.01 -5.6 22 53 -13.6 7.4
02:45 1018 30.06 847 25.01 -5.1 22.8 52 -13.6 7.6
02:50 1017 30.03 847 25.01 -5.1 22.8 53 -13.2 8.2
02:55 1017 30.03 847 25.01 -5.4 22.3 57 -12.7 9.2
03:00 1017 30.03 847 25.01 -5.8 21.5 59 -12.7 9.2
03:05 1017 30.03 847 25.01 -6.1 21 59 -12.9 8.7
03:10 1017 30.03 847 25.01 -6.1 21.1 59 -12.8 9
03:15 1017 30.03 846 24.98 -5.9 21.3 59 -12.8 8.9
03:20 1017 30.03 846 24.98 -5.9 21.4 57 -13 8.5
03:25 1017 30.03 846 24.98 -5.5 22.2 56 -12.9 8.7
03:30 1017 30.03 846 24.98 -5.6 21.9 58 -12.7 9.2
03:35 1017 30.03 846 24.98 -5.5 22.1 57 -12.7 9.1
03:40 1017 30.03 846 24.98 -5.5 22.2 57 -12.6 9.3
03:45 1017 30.03 847 25.01 -5.7 21.7 58 -12.7 9.2
03:50 1017 30.03 846 24.98 -5.8 21.5 57 -13.1 8.4
03:55 1017 30.03 846 24.98 -5.5 22.2 57 -12.7 9.2
04:00 1017 30.03 846 24.98 -5.6 21.9 56 -13.1 8.3
04:05 1017 30.03 846 24.98 -5.6 21.9 56 -13.1 8.4
04:10 1017 30.03 846 24.98 -5.6 21.9 56 -13.1 8.3
04:15 1017 30.03 846 24.98 -5.5 22.2 57 -12.6 9.3
04:20 1017 30.03 846 24.98 -5.7 21.7 57 -12.9 8.8
04:25 1017 30.03 846 24.98 -6.1 21 58 -13.2 8.3
04:30 1017 30.03 846 24.98 -6 21.2 59 -12.8 9
04:35 1017 30.03 846 24.98 -6.3 20.8 58 -13.2 8.3
04:40 1017 30.03 846 24.98 -6.1 21.1 61 -12.5 9.5
04:45 1017 30.03 846 24.98 -6.3 20.6 61 -12.7 9.1
04:50 1017 30.03 846 24.98 -6.6 20.1 61 -12.8 8.9
04:55 1017 30.03 846 24.98 -6.6 20.1 61 -12.9 8.9
05:00 1017 30.03 846 24.98 -6.8 19.8 62 -13 8.6
05:05 1017 30.03 846 24.98 -6.9 19.6 62 -13.1 8.4
05:10 1017 30.03 846 24.98 -7 19.3 62 -13.1 8.5
05:15 1017 30.03 846 24.98 -7 19.5 61 -13.2 8.2
05:20 1017 30.03 846 24.98 -6.3 20.6 59 -13.1 8.5
05:25 1017 30.03 846 24.98 -5.9 21.3 58 -13 8.6
05:30 1016 30 846 24.98 -5.6 22 55 -13.2 8.3
05:35 1016 30 846 24.98 -5.3 22.5 56 -12.7 9.1
05:40 1016 30 846 24.98 -5.7 21.7 59 -12.5 9.4
05:45 1016 30 846 24.98 -6.3 20.7 58 -13.2 8.3
05:50 1016 30 845 24.95 -6 21.3 57 -13.2 8.2
05:55 1016 30 845 24.95 -5.6 21.9 55 -13.4 8
06:00 1016 30 845 24.95 -5.8 21.6 59 -12.7 9.2
06:05 1016 30 845 24.95 -6.5 20.4 61 -12.7 9.1
06:10 1016 30 845 24.95 -6.4 20.5 61 -12.8 9
06:15 1016 30 845 24.95 -5.9 21.4 60 -12.4 9.7
06:20 1016 30 845 24.95 -6 21.1 61 -12.5 9.5
06:25 1016 30 845 24.95 -6.6 20.2 62 -12.7 9.1
06:30 1016 30 845 24.95 -6.5 20.3 61 -12.8 9
06:35 1016 30 845 24.95 -6.3 20.7 61 -12.6 9.3
06:40 1016 30 845 24.95 -6.3 20.6 61 -12.6 9.3
06:45 1016 30 845 24.95 -6.4 20.5 63 -12.3 9.9
06:50 1016 30 845 24.95 -6.4 20.5 64 -12.1 10.2
06:55 1016 30 845 24.95 -6.2 20.9 63 -12.1 10.1
07:00 1016 30 845 24.95 -6.3 20.7 63 -12.2 10
07:05 1016 30 845 24.95 -6.8 19.8 65 -12.2 10
07:10 1016 30 845 24.95 -6.6 20.2 63 -12.4 9.6
07:15 1016 30 845 24.95 -5.9 21.4 61 -12.2 10
07:20 1016 30 845 24.95 -5.8 21.6 61 -12.1 10.3
07:25 1016 30 845 24.95 -5.9 21.4 62 -12 10.5
07:30 1016 30 845 24.95 -5.9 21.3 63 -12 10.5
07:35 1016 30 845 24.95 -5.8 21.5 62 -12 10.4
07:40 1016 30 845 24.95 -6.5 20.3 65 -12.1 10.3
07:45 1016 30 845 24.95 -7.4 18.6 67 -12.5 9.5
07:50 1016 30 845 24.95 -7.8 18 69 -12.6 9.3
07:55 1016 30 845 24.95 -8.1 17.4 69 -12.8 8.9
08:00 1016 30 845 24.95 -8.1 17.4 69 -12.8 8.9
08:05 1016 30 845 24.95 -7.9 17.7 68 -12.8 9
08:10 1016 30 845 24.95 -8.5 16.7 72 -12.7 9.2
08:15 1016 30 845 24.95 -9 15.8 73 -13 8.7
08:20 1016 30 845 24.95 -8.8 16.2 71 -13.1 8.4
08:25 1016 30 845 24.95 -8.4 16.8 69 -13.2 8.3
08:30 1015 29.97 845 24.95 -8.3 17.2 69 -13 8.6
08:35 1015 29.97 845 24.95 -8 17.6 68 -13 8.6
08:40 1015 29.97 844 24.92 -7.5 18.5 65 -13 8.6
08:45 1015 29.97 844 24.92 -7.3 18.9 64 -12.9 8.7
08:50 1015 29.97 844 24.92 -7.8 18 66 -13.1 8.4
08:55 1015 29.97 844 24.92 -7.5 18.5 64 -13.2 8.3
09:00 1015 29.97 844 24.92 -7.3 18.9 64 -13 8.6
09:05 1015 29.97 844 24.92 -7.1 19.3 62 -13.1 8.4
09:10 1015 29.97 844 24.92 -6.8 19.7 62 -12.8 8.9
09:15 1015 29.97 844 24.92 -6.8 19.8 65 -12.2 10
09:20 1015 29.97 844 24.92 -7 19.4 65 -12.4 9.6
09:25 1015 29.97 844 24.92 -6.8 19.8 65 -12.3 9.9
09:30 1015 29.97 844 24.92 -6.9 19.5 65 -12.4 9.7
09:35 1015 29.97 844 24.92 -6.9 19.6 64 -12.5 9.5
09:40 1015 29.97 844 24.92 -6.8 19.8 65 -12.3 9.9
09:45 1015 29.97 844 24.92 -6.9 19.6 67 -12.1 10.3
09:50 1015 29.97 844 24.92 -7 19.5 65 -12.4 9.7
09:55 1015 29.97 844 24.92 -6.7 20 63 -12.5 9.4
10:00 1015 29.97 844 24.92 -6.7 20 65 -12.1 10.2
10:05 1015 29.97 844 24.92 -6.6 20.1 64 -12.4 9.8
10:10 1015 29.97 844 24.92 -6 21.2 63 -12 10.4
10:15 1015 29.97 844 24.92 -6 21.3 63 -12 10.4
10:20 1015 29.97 844 24.92 -5.8 21.5 62 -11.9 10.5
10:25 1015 29.97 844 24.92 -5.6 21.9 61 -12 10.3
10:30 1015 29.97 844 24.92 -5.5 22.1 63 -11.5 11.2
10:35 1015 29.97 844 24.92 -5.2 22.6 61 -11.6 11.1
10:40 1015 29.97 844 24.92 -4.8 23.4 60 -11.4 11.5
10:45 1015 29.97 844 24.92 -4.4 24.1 59 -11.3 11.7
10:50 1015 29.97 844 24.92 -3.9 25 56 -11.4 11.4
10:55 1015 29.97 844 24.92 -3.6 25.5 58 -10.8 12.6
11:00 1015 29.97 844 24.92 -3.7 25.4 58 -10.8 12.5
11:05 1015 29.97 844 24.92 -3.7 25.4 58 -10.7 12.8
11:10 1015 29.97 844 24.92 -3.7 25.4 58 -10.7 12.8
11:15 1015 29.97 844 24.92 -3.6 25.6 60 -10.2 13.6
11:20 1015 29.97 844 24.92 -3.4 25.8 58 -10.6 12.9
11:25 1015 29.97 844 24.92 -2.9 26.8 55 -10.6 12.9
11:30 1015 29.97 844 24.92 -1.9 28.6 55 -9.7 14.6
11:35 1015 29.97 844 24.92 -1.4 29.4 52 -10 14
11:40 1015 29.97 844 24.92 -1.3 29.7 53 -9.7 14.5
11:45 1015 29.97 844 24.92 -1.1 30 52 -9.7 14.5
11:50 1015 29.97 844 24.92 -0.9 30.4 50 -10.1 13.9
11:55 1015 29.97 844 24.92 -0.7 30.8 47 -10.6 12.9
12:00 1015 29.97 844 24.92 -0.1 31.7 49 -9.5 14.9
12:05 1015 29.97 844 24.92 0.1 32.1 51 -9 15.9
12:10 1015 29.97 844 24.92 -0.3 31.5 52 -8.9 15.9
12:15 1015 29.97 844 24.92 -0.5 31 53 -9 15.8
12:20 1015 29.97 844 24.92 -0.3 31.5 50 -9.3 15.2
12:25 1015 29.97 844 24.92 -0.2 31.7 51 -9.1 15.5
12:30 1015 29.97 844 24.92 0.2 32.4 50 -9.1 15.7
12:35 1014 29.94 844 24.92 0.9 33.6 47 -9.2 15.4
12:40 1014 29.94 844 24.92 1.4 34.6 46 -8.9 15.9
12:45 1014 29.94 844 24.92 1.3 34.4 47 -8.9 16
12:50 1014 29.94 843 24.89 0.3 32.6 50 -8.9 15.9
12:55 1014 29.94 843 24.89 -0.1 31.9 50 -9.3 15.2
13:00 1014 29.94 843 24.89 -0.4 31.3 50 -9.7 14.6
13:05 1014 29.94 843 24.89 -1.1 30.1 52 -9.6 14.7
13:10 1014 29.94 843 24.89 -1.5 29.3 54 -9.7 14.5
13:15 1014 29.94 843 24.89 -1.8 28.8 55 -9.7 14.5
13:20 1014 29.94 843 24.89 -1.4 29.5 50 -10.5 13.1
13:25 1014 29.94 843 24.89 -1.2 29.8 52 -9.9 14.1
13:30 1014 29.94 843 24.89 -1.2 29.9 48 -10.7 12.7
13:35 1014 29.94 843 24.89 -1 30.1 49 -10.4 13.3
13:40 1014 29.94 843 24.89 -1 30.1 50 -10.2 13.6
13:45 1014 29.94 843 24.89 -0.9 30.3 48 -10.6 13
13:50 1014 29.94 843 24.89 -1.1 30.1 51 -10 13.9
13:55 1014 29.94 843 24.89 -1.4 29.5 53 -9.9 14.2
14:00 1014 29.94 843 24.89 -2 28.5 54 -10.1 13.8
14:05 1014 29.94 843 24.89 -1.7 28.9 54 -9.8 14.4
14:10 1014 29.94 843 24.89 -1.6 29.1 53 -10 13.9
14:15 1014 29.94 843 24.89 -1.5 29.4 51 -10.2 13.6
14:20 1014 29.94 843 24.89 -1.3 29.6 51 -10.3 13.5
14:25 1014 29.94 843 24.89 -1.3 29.6 50 -10.4 13.2
14:30 1014 29.94 843 24.89 -1.5 29.3 54 -9.6 14.8
14:35 1014 29.94 843 24.89 -1.6 29 55 -9.7 14.6
14:40 1014 29.94 843 24.89 -1.8 28.8 54 -9.8 14.4
14:45 1014 29.94 843 24.89 -1.4 29.4 53 -9.8 14.3
14:50 1014 29.94 843 24.89 -1.1 30.1 52 -9.7 14.5
14:55 1014 29.94 843 24.89 -0.9 30.4 51 -9.9 14.3
15:00 1014 29.94 843 24.89 -0.8 30.6 50 -9.8 14.3
15:05 1014 29.94 843 24.89 -0.4 31.3 50 -9.6 14.7
15:10 1014 29.94 843 24.89 0.1 32.2 48 -9.6 14.8
15:15 1014 29.94 843 24.89 0.3 32.5 49 -9.1 15.6
15:20 1014 29.94 843 24.89 0.4 32.7 48 -9.3 15.3
15:25 1014 29.94 843 24.89 0 32.1 50 -9.1 15.6
15:30 1014 29.94 843 24.89 0.5 33 49 -9.1 15.7
15:35 1014 29.94 843 24.89 0.8 33.4 47 -9.3 15.2
15:40 1014 29.94 843 24.89 1.1 33.9 48 -8.7 16.3
15:45 1014 29.94 843 24.89 0.8 33.4 48 -8.9 16
15:50 1014 29.94 843 24.89 1 33.9 48 -8.7 16.4
15:55 1014 29.94 843 24.89 0.9 33.6 48 -8.9 16
16:00 1014 29.94 843 24.89 1.2 34.2 43 -9.9 14.1
16:05 1014 29.94 843 24.89 1.9 35.4 42 -9.6 14.8
16:10 1014 29.94 843 24.89 2.1 35.8 44 -8.8 16.2
16:15 1014 29.94 843 24.89 1.4 34.6 45 -9.2 15.4
16:20 1014 29.94 843 24.89 1.6 34.9 44 -9.3 15.2
16:25 1014 29.94 843 24.89 1.7 35.1 44 -9.2 15.4
16:30 1014 29.94 843 24.89 1.8 35.2 44 -9.2 15.4
16:35 1014 29.94 843 24.89 2 35.5 43 -9.3 15.3
16:40 1014 29.94 843 24.89 1.9 35.5 46 -8.6 16.5
16:45 1014 29.94 843 24.89 1.9 35.4 45 -8.9 16
16:50 1014 29.94 843 24.89 2 35.6 45 -8.8 16.1
16:55 1014 29.94 843 24.89 1.6 34.9 47 -8.5 16.8
17:00 1014 29.94 843 24.89 1.3 34.3 48 -8.4 16.9
17:05 1014 29.94 843 24.89 1 33.8 50 -8.2 17.2
17:10 1014 29.94 843 24.89 0.8 33.4 51 -8.3 17
17:15 1014 29.94 843 24.89 0.4 32.7 52 -8.3 17
17:20 1014 29.94 843 24.89 0.2 32.3 52 -8.5 16.7
17:25 1014 29.94 843 24.89 0.1 32.2 55 -7.9 17.7
17:30 1014 29.94 843 24.89 -0.1 31.9 55 -8 17.5
17:35 1014 29.94 843 24.89 -0.2 31.6 55 -8.2 17.3
17:40 1014 29.94 843 24.89 -0.4 31.3 56 -8.1 17.4
17:45 1014 29.94 843 24.89 -0.4 31.2 55 -8.3 17.1
17:50 1014 29.94 843 24.89 -0.6 31 53 -8.9 16
17:55 1014 29.94 843 24.89 -0.6 31 54 -8.8 16.2
18:00 1014 29.94 843 24.89 -0.6 30.9 54 -8.8 16.1
18:05 1014 29.94 843 24.89 -0.5 31.1 53 -8.9 16
18:10 1014 29.94 843 24.89 -0.3 31.4 51 -9.2 15.4
18:15 1014 29.94 843 24.89 -0.4 31.3 52 -9.1 15.6
18:20 1014 29.94 843 24.89 -0.5 31.1 53 -8.9 15.9
18:25 1014 29.94 843 24.89 -0.6 30.9 55 -8.7 16.4
18:30 1014 29.94 843 24.89 -0.7 30.8 54 -8.9 16
18:35 1014 29.94 843 24.89 -0.6 30.8 54 -9 15.9
18:40 1014 29.94 843 24.89 -0.6 31 52 -9.2 15.4
18:45 1014 29.94 843 24.89 -0.5 31.1 53 -8.9 16
18:50 1014 29.94 843 24.89 -0.5 31.1 53 -8.8 16.1
18:55 1014 29.94 843 24.89 -0.4 31.3 53 -8.9 15.9
19:00 1014 29.94 843 24.89 -0.2 31.6 51 -9.1 15.7
19:05 1014 29.94 843 24.89 -0.1 31.9 50 -9.4 15.1
19:10 1014 29.94 843 24.89 0 32 51 -8.9 15.9
19:15 1014 29.94 843 24.89 0 32 52 -8.8 16.2
19:20 1014 29.94 843 24.89 0.1 32.1 52 -8.6 16.6
19:25 1014 29.94 843 24.89 0.2 32.3 52 -8.5 16.7
19:30 1014 29.94 843 24.89 0.4 32.7 52 -8.4 16.9
19:35 1014 29.94 843 24.89 0.5 32.8 51 -8.5 16.7
19:40 1014 29.94 843 24.89 0.6 33 52 -8.2 17.3
19:45 1014 29.94 843 24.89 0.5 32.9 50 -8.8 16.2
19:50 1014 29.94 843 24.89 0.6 33.1 56 -7.3 18.8
19:55 1014 29.94 843 24.89 0.5 33 57 -7.1 19.3
20:00 1014 29.94 843 24.89 0.3 32.5 61 -6.4 20.5
20:05 1014 29.94 843 24.89 -0.1 31.8 65 -6 21.3
20:10 1014 29.94 843 24.89 -0.3 31.4 65 -6.2 20.9
20:15 1014 29.94 843 24.89 -0.3 31.5 67 -5.6 21.9
20:20 1014 29.94 843 24.89 -0.3 31.5 67 -5.6 22
20:25 1014 29.94 843 24.89 -0.5 31.1 69 -5.6 21.9
20:30 1014 29.94 843 24.89 -1 30.3 69 -6 21.2
20:35 1014 29.94 843 24.89 -1.1 30 69 -6.1 21.1
20:40 1014 29.94 843 24.89 -1.1 30.1 69 -6.1 21.1
20:45 1014 29.94 843 24.89 -1 30.2 69 -6 21.2
20:50 1014 29.94 843 24.89 -1 30.1 70 -5.8 21.5
20:55 1014 29.94 843 24.89 -1.1 29.9 68 -6.3 20.7
21:00 1014 29.94 843 24.89 -1 30.2 66 -6.6 20.2
21:05 1014 29.94 843 24.89 -0.8 30.5 65 -6.7 20
21:10 1014 29.94 843 24.89 -0.6 30.9 64 -6.7 20
21:15 1014 29.94 843 24.89 -0.2 31.7 59 -7.2 19
21:20 1014 29.94 843 24.89 0 32 59 -7.1 19.3
21:25 1014 29.94 843 24.89 -0.1 31.9 59 -7.1 19.2
21:30 1014 29.94 843 24.89 0 32.1 62 -6.4 20.5
21:35 1014 29.94 843 24.89 0.1 32.1 62 -6.3 20.7
21:40 1014 29.94 843 24.89 0.2 32.3 63 -6.1 21
21:45 1013 29.91 843 24.89 0.3 32.5 63 -6 21.3
21:50 1013 29.91 843 24.89 0.4 32.8 63 -5.9 21.5
21:55 1013 29.91 843 24.89 0.5 32.9 63 -5.8 21.6
22:00 1013 29.91 842 24.86 0.4 32.7 63 -5.9 21.4
22:05 1013 29.91 842 24.86 0.6 33.1 62 -5.9 21.4
22:10 1013 29.91 842 24.86 1 33.7 62 -5.5 22.2
22:15 1013 29.91 842 24.86 1.1 34 62 -5.3 22.5
22:20 1013 29.91 842 24.86 1.3 34.3 62 -5.1 22.8
22:25 1013 29.91 842 24.86 1.4 34.5 62 -5 22.9
22:30 1013 29.91 842 24.86 1.6 34.8 62 -4.9 23.2
22:35 1013 29.91 842 24.86 1.4 34.5 63 -4.9 23.2
22:40 1013 29.91 842 24.86 1.4 34.5 62 -5.1 22.7
22:45 1013 29.91 842 24.86 1.4 34.6 61 -5.2 22.6
22:50 1013 29.91 842 24.86 1.5 34.6 61 -5.3 22.4
22:55 1013 29.91 842 24.86 1.7 35 58 -5.8 21.6
23:00 1013 29.91 842 24.86 2.4 36.3 55 -5.6 21.9
23:05 1013 29.91 842 24.86 2.7 36.9 58 -4.8 23.3
23:10 1013 29.91 842 24.86 2 35.7 62 -4.6 23.8
23:15 1013 29.91 842 24.86 1.5 34.7 63 -4.7 23.5
23:20 1013 29.91 842 24.86 0.9 33.7 67 -4.5 23.9
23:25 1013 29.91 842 24.86 0.2 32.4 71 -4.5 23.9
23:30 1013 29.91 842 24.86 -0.4 31.3 73 -4.7 23.6
23:35 1013 29.91 842 24.86 -1 30.2 73 -5.2 22.7
23:40 1013 29.91 842 24.86 -1.3 29.7 74 -5.3 22.4
23:45 1013 29.91 842 24.86 -1.1 30 73 -5.4 22.3
23:50 1013 29.91 842 24.86 -1 30.3 71 -5.5 22
23:55 1013 29.91 842 24.86 -0.8 30.6 70 -5.6 21.8
24:00 1013 29.91 842 24.86 -0.7 30.7 69 -5.8 21.6